Time;durP1;ratioP1;P1;durP2;ratioP2;P2;SDS_P1;SDS_P2;PMS_P1;PMS_P2;Temp;Humidity;BMP_temperature;BMP_pressure;BME280_temperature;BME280_humidity;BME280_pressure;Samples;Min_cycle;Max_cycle;Signal;HPM_P1;HPM_P2
2022/08/13 00:02:10;;;;;;;10.77;10.27;;;;;;;20.19;100.00;100569.47;5051702;28;20115;-66
2022/08/13 00:04:38;;;;;;;11.13;10.63;;;;;;;20.22;100.00;100563.63;5054029;28;20108;-64
2022/08/13 00:07:07;;;;;;;11.10;10.60;;;;;;;20.20;100.00;100565.69;5051212;28;20033;-66
2022/08/13 00:09:41;;;;;;;10.90;10.40;;;;;;;20.15;100.00;100572.63;5054773;28;20099;-64
2022/08/13 00:14:56;;;;;;;11.02;10.52;;;;;;;20.21;100.00;100575.44;5053688;28;20043;-66
2022/08/13 00:17:22;;;;;;;11.15;10.65;;;;;;;20.18;100.00;100573.22;5053166;28;20391;-64
2022/08/13 00:19:50;;;;;;;11.60;11.00;;;;;;;20.14;100.00;100568.31;5053962;28;20031;-65
2022/08/13 00:22:19;;;;;;;11.10;10.60;;;;;;;20.22;100.00;100566.31;5052569;28;20118;-64
2022/08/13 00:24:45;;;;;;;10.80;10.30;;;;;;;20.21;100.00;100556.59;5054193;28;20057;-65
2022/08/13 00:27:11;;;;;;;10.75;10.25;;;;;;;20.16;100.00;100557.28;5054322;28;20029;-65
2022/08/13 00:29:38;;;;;;;11.00;10.50;;;;;;;20.19;100.00;100556.00;5054232;28;20392;-64
2022/08/13 00:32:04;;;;;;;11.20;10.70;;;;;;;20.12;100.00;100553.41;5054221;28;20033;-65
2022/08/13 00:34:30;;;;;;;11.10;10.60;;;;;;;20.15;100.00;100551.09;5053803;28;20037;-66
2022/08/13 00:36:55;;;;;;;10.75;10.25;;;;;;;20.17;100.00;100537.38;5052309;28;20053;-66
2022/08/13 00:39:21;;;;;;;10.60;10.10;;;;;;;20.18;100.00;100540.88;5052582;28;20374;-65
2022/08/13 00:41:47;;;;;;;10.70;10.20;;;;;;;20.15;100.00;100548.41;5053958;28;20052;-66
2022/08/13 00:44:18;;;;;;;10.70;10.20;;;;;;;20.15;100.00;100539.50;5052797;28;20103;-65
2022/08/13 00:46:45;;;;;;;10.50;10.00;;;;;;;20.13;100.00;100531.66;5053414;28;20035;-65
2022/08/13 00:49:13;;;;;;;10.82;10.32;;;;;;;20.16;100.00;100530.34;5051886;28;20028;-66
2022/08/13 00:51:40;;;;;;;10.60;10.10;;;;;;;20.08;100.00;100525.34;5052716;28;20029;-66
2022/08/13 00:54:09;;;;;;;10.77;10.27;;;;;;;20.22;100.00;100536.69;5053434;28;20519;-66
2022/08/13 00:56:35;;;;;;;10.90;10.40;;;;;;;20.22;100.00;100531.28;5053539;28;20048;-65
2022/08/13 00:59:13;;;;;;;10.50;10.00;;;;;;;20.17;100.00;100532.00;5053717;28;20485;-66
2022/08/13 01:01:43;;;;;;;10.70;10.20;;;;;;;20.22;100.00;100524.03;5052508;28;20075;-66
2022/08/13 01:04:09;;;;;;;10.95;10.45;;;;;;;20.19;100.00;100531.75;5052997;28;20017;-65
2022/08/13 01:06:35;;;;;;;10.95;10.45;;;;;;;20.20;100.00;100518.06;5052032;28;20108;-65
2022/08/13 01:09:03;;;;;;;10.55;10.05;;;;;;;20.24;100.00;100519.22;5052041;28;20427;-65
2022/08/13 01:11:34;;;;;;;11.02;10.52;;;;;;;20.23;100.00;100519.44;5050141;28;20055;-66
2022/08/13 01:14:07;;;;;;;10.70;10.20;;;;;;;20.18;100.00;100516.66;5053154;28;20492;-65
2022/08/13 01:16:36;;;;;;;10.63;10.13;;;;;;;20.15;100.00;100513.38;5053092;28;20020;-65
2022/08/13 01:19:05;;;;;;;10.35;9.85;;;;;;;20.13;100.00;100512.00;5053018;28;20484;-65
2022/08/13 01:21:32;;;;;;;10.68;10.18;;;;;;;20.09;100.00;100519.72;5053313;28;20436;-65
2022/08/13 01:23:58;;;;;;;10.77;10.27;;;;;;;20.06;100.00;100520.19;5053215;28;20100;-64
2022/08/13 01:26:23;;;;;;;11.43;10.82;;;;;;;20.14;100.00;100516.31;5051852;28;20141;-66
2022/08/13 01:28:51;;;;;;;11.00;10.50;;;;;;;20.08;100.00;100518.09;5051279;28;20033;-65
2022/08/13 01:31:19;;;;;;;10.60;10.10;;;;;;;20.09;100.00;100511.63;5053244;28;20508;-65
2022/08/13 01:33:48;;;;;;;10.90;10.40;;;;;;;20.05;100.00;100512.34;5052978;28;20028;-65
2022/08/13 01:36:13;;;;;;;10.98;10.48;;;;;;;20.05;100.00;100515.03;5051443;28;20028;-66
2022/08/13 01:38:41;;;;;;;11.05;10.55;;;;;;;20.08;100.00;100515.38;5051553;28;20033;-65
2022/08/13 01:41:08;;;;;;;10.90;10.40;;;;;;;20.11;100.00;100514.09;5052728;28;20032;-65
2022/08/13 01:43:38;;;;;;;11.00;10.50;;;;;;;20.16;100.00;100516.88;5049975;28;20128;-64
2022/08/13 01:46:06;;;;;;;10.90;10.40;;;;;;;20.10;100.00;100512.44;5052335;28;20053;-66
2022/08/13 01:51:21;;;;;;;11.07;10.57;;;;;;;20.11;100.00;100504.13;5052185;28;20027;-65
2022/08/13 01:53:59;;;;;;;11.10;10.60;;;;;;;20.13;100.00;100506.59;5049808;28;20033;-65
2022/08/13 01:56:27;;;;;;;11.20;10.70;;;;;;;20.08;100.00;100499.22;5052481;28;20472;-66
2022/08/13 01:58:57;;;;;;;11.15;10.65;;;;;;;20.08;100.00;100503.78;5051843;28;20028;-65
2022/08/13 02:01:25;;;;;;;10.88;10.38;;;;;;;20.06;100.00;100517.50;5046832;28;20024;-66
2022/08/13 02:03:56;;;;;;;11.30;10.80;;;;;;;20.18;100.00;100522.84;5051978;28;20107;-65
2022/08/13 02:06:23;;;;;;;11.30;10.80;;;;;;;20.10;100.00;100512.44;5048874;28;20032;-65
2022/08/13 02:08:50;;;;;;;10.75;10.25;;;;;;;20.10;100.00;100507.06;5052654;28;20024;-65
2022/08/13 02:11:16;;;;;;;11.18;10.68;;;;;;;20.07;100.00;100512.94;5052269;28;20032;-65
2022/08/13 02:13:42;;;;;;;10.77;10.27;;;;;;;20.17;100.00;100509.63;5052362;28;20052;-66
2022/08/13 02:16:07;;;;;;;11.13;10.63;;;;;;;20.20;100.00;100511.84;5051171;28;20381;-66
2022/08/13 02:18:33;;;;;;;10.95;10.45;;;;;;;20.22;100.00;100509.75;5050421;28;20095;-66
2022/08/13 02:21:03;;;;;;;10.70;10.20;;;;;;;20.15;100.00;100499.91;5052036;28;20141;-66
2022/08/13 02:23:33;;;;;;;11.15;10.65;;;;;;;20.13;100.00;100488.56;5050918;28;20036;-64
2022/08/13 02:26:00;;;;;;;10.93;10.43;;;;;;;20.15;100.00;100493.72;5051508;28;20021;-66
2022/08/13 02:28:28;;;;;;;10.63;10.13;;;;;;;20.11;100.00;100496.03;5052112;28;20420;-65
2022/08/13 02:30:56;;;;;;;10.88;10.38;;;;;;;20.11;100.00;100476.38;5051738;28;20028;-64
2022/08/13 02:33:22;;;;;;;10.52;10.02;;;;;;;20.16;100.00;100473.78;5049306;28;20484;-65
2022/08/13 02:35:48;;;;;;;10.70;10.20;;;;;;;20.13;100.00;100472.41;5051660;28;20166;-66
2022/08/13 02:38:16;;;;;;;10.95;10.45;;;;;;;20.13;100.00;100468.91;5051402;28;20492;-65
2022/08/13 02:43:28;;;;;;;11.02;10.52;;;;;;;20.14;100.00;100459.75;5051393;28;20055;-65
2022/08/13 02:45:55;;;;;;;10.80;10.30;;;;;;;20.09;100.00;100462.34;5051523;28;20700;-65
2022/08/13 02:48:23;;;;;;;11.07;10.57;;;;;;;20.08;100.00;100463.41;5049373;28;20539;-64
2022/08/13 02:50:50;;;;;;;10.43;9.93;;;;;;;20.07;100.00;100451.81;5051174;28;20029;-67
2022/08/13 02:53:22;;;;;;;11.00;10.50;;;;;;;19.97;100.00;100448.09;5050871;28;20025;-66
2022/08/13 02:55:47;;;;;;;10.80;10.30;;;;;;;20.03;100.00;100453.34;5050325;28;20036;-66
2022/08/13 02:58:16;;;;;;;10.73;10.23;;;;;;;20.05;100.00;100453.94;5051397;28;20473;-65
2022/08/13 03:00:48;;;;;;;10.20;9.70;;;;;;;20.07;100.00;100453.69;5051528;28;20063;-66
2022/08/13 03:03:15;;;;;;;10.80;10.30;;;;;;;20.03;100.00;100457.91;5051155;28;20029;-66
2022/08/13 03:05:41;;;;;;;10.77;10.27;;;;;;;20.12;100.00;100460.00;5050788;28;20649;-65
2022/08/13 03:08:07;;;;;;;10.90;10.40;;;;;;;20.19;100.00;100464.41;5043865;28;20033;-65
2022/08/13 03:10:32;;;;;;;10.52;10.02;;;;;;;20.17;100.00;100453.88;5050470;28;20039;-66
2022/08/13 03:13:04;;;;;;;11.45;10.88;;;;;;;20.17;100.00;100458.44;5051191;28;20024;-65
2022/08/13 03:15:31;;;;;;;10.70;10.20;;;;;;;20.12;100.00;100464.53;5049992;28;20389;-66
2022/08/13 03:17:56;;;;;;;10.90;10.40;;;;;;;19.90;100.00;100453.59;5051196;28;20025;-65
2022/08/13 03:20:22;;;;;;;10.80;10.30;;;;;;;19.91;100.00;100454.44;5051132;28;20029;-65
2022/08/13 03:22:56;;;;;;;11.10;10.60;;;;;;;19.80;100.00;100459.59;5049126;28;20520;-64
2022/08/13 03:25:25;;;;;;;10.77;10.27;;;;;;;19.82;100.00;100467.44;5049679;28;20614;-65
2022/08/13 03:27:52;;;;;;;10.90;10.40;;;;;;;19.83;100.00;100469.06;5050632;28;20039;-66
2022/08/13 03:30:21;;;;;;;10.80;10.30;;;;;;;19.82;100.00;100468.25;5049668;28;20033;-66
2022/08/13 03:32:47;;;;;;;11.00;10.50;;;;;;;19.83;100.00;100469.06;5047897;28;20021;-65
2022/08/13 03:35:24;;;;;;;11.13;10.63;;;;;;;19.69;100.00;100459.63;5050998;28;20036;-66
2022/08/13 03:37:53;;;;;;;11.52;10.93;;;;;;;19.71;100.00;100463.72;5053183;28;20037;-65
2022/08/13 03:40:24;;;;;;;10.60;10.10;;;;;;;19.77;100.00;100464.66;5055110;28;20021;-66
2022/08/13 03:42:50;;;;;;;10.50;10.00;;;;;;;19.79;100.00;100467.91;5055046;28;20381;-65
2022/08/13 03:45:18;;;;;;;10.90;10.40;;;;;;;19.85;100.00;100469.66;5054932;28;20031;-66
2022/08/13 03:47:44;;;;;;;11.10;10.60;;;;;;;19.81;100.00;100461.22;5054363;28;20028;-65
2022/08/13 03:50:12;;;;;;;10.77;10.27;;;;;;;19.81;100.00;100463.91;5053056;28;20508;-66
2022/08/13 03:52:38;;;;;;;10.93;10.43;;;;;;;19.77;100.00;100467.34;5054521;28;20578;-65
2022/08/13 03:55:12;;;;;;;10.75;10.25;;;;;;;19.78;100.00;100468.97;5054807;28;20071;-66
2022/08/13 03:57:44;;;;;;;;;;;;;;;19.75;100.00;100467.56;5055163;28;20074;-66
2022/08/13 04:00:12;;;;;;;10.95;10.45;;;;;;;19.73;100.00;100463.47;5050551;28;19919;-66
2022/08/13 04:02:40;;;;;;;11.10;10.60;;;;;;;19.77;100.00;100467.34;5052566;28;20024;-65
2022/08/13 04:05:16;;;;;;;11.80;11.20;;;;;;;19.87;100.00;100460.28;5051114;28;20028;-65
2022/08/13 04:07:42;;;;;;;11.25;10.75;;;;;;;19.86;100.00;100458.66;5054442;28;20109;-66
2022/08/13 04:10:09;;;;;;;10.95;10.45;;;;;;;19.88;100.00;100455.72;5054732;28;20033;-66
2022/08/13 04:12:36;;;;;;;10.80;10.30;;;;;;;19.88;100.00;100450.34;5054457;28;20462;-65
2022/08/13 04:15:03;;;;;;;10.70;10.20;;;;;;;19.86;100.00;100455.16;5054681;28;20365;-65
2022/08/13 04:17:29;;;;;;;11.88;11.27;;;;;;;19.92;100.00;100462.28;5053857;28;20040;-66
2022/08/13 04:19:57;;;;;;;11.93;11.32;;;;;;;20.00;100.00;100447.63;5052315;28;20025;-65
2022/08/13 04:22:24;;;;;;;11.52;10.93;;;;;;;20.03;100.00;100455.22;5053382;28;20029;-66
2022/08/13 04:24:50;;;;;;;11.18;10.68;;;;;;;20.13;100.00;100447.34;5054188;28;20108;-66
2022/08/13 04:27:15;;;;;;;11.00;10.50;;;;;;;20.18;100.00;100454.69;5054249;28;20103;-65
2022/08/13 04:29:41;;;;;;;10.75;10.25;;;;;;;20.24;100.00;100454.56;5053325;28;20090;-65
2022/08/13 04:32:06;;;;;;;11.23;10.73;;;;;;;20.40;100.00;100461.88;5052435;28;20037;-66
2022/08/13 04:34:32;;;;;;;11.48;10.88;;;;;;;20.42;100.00;100458.94;5052054;28;20031;-66
2022/08/13 04:36:57;;;;;;;10.80;10.30;;;;;;;20.56;100.00;100464.88;5054098;28;20090;-66
2022/08/13 04:39:24;;;;;;;10.90;10.40;;;;;;;20.43;100.00;100457.88;5052466;28;20423;-66
2022/08/13 04:41:50;;;;;;;10.80;10.30;;;;;;;20.44;100.00;100462.25;5054147;28;20025;-65
2022/08/13 04:44:16;;;;;;;10.35;9.85;;;;;;;20.31;100.00;100466.00;5053748;28;20121;-66
2022/08/13 04:46:42;;;;;;;10.88;10.38;;;;;;;20.31;100.00;100466.00;5053513;28;20045;-65
2022/08/13 04:49:11;;;;;;;11.00;10.50;;;;;;;20.34;100.00;100462.00;5064437;28;20035;-64
2022/08/13 04:51:37;;;;;;;11.20;10.70;;;;;;;20.42;100.00;100462.47;5053529;28;20033;-65
2022/08/13 04:54:02;;;;;;;11.07;10.57;;;;;;;20.29;100.00;100468.13;5053458;28;20041;-66
2022/08/13 04:56:28;;;;;;;10.95;10.45;;;;;;;20.31;100.00;100466.00;5053708;28;20049;-65
2022/08/13 04:58:54;;;;;;;10.95;10.45;;;;;;;20.40;100.00;100464.56;5053861;28;20050;-65
2022/08/13 05:01:21;;;;;;;11.05;10.55;;;;;;;20.41;100.00;100462.69;5052996;28;20520;-65
2022/08/13 05:03:47;;;;;;;11.07;10.57;;;;;;;20.42;100.00;100462.47;5050072;28;20033;-66
2022/08/13 05:06:18;;;;;;;10.98;10.48;;;;;;;20.54;100.00;100458.91;5051373;28;20028;-66
2022/08/13 05:08:51;;;;;;;10.98;10.48;;;;;;;20.51;100.00;100449.44;5052991;28;20068;-65
2022/08/13 05:11:18;;;;;;;10.48;9.98;;;;;;;20.73;100.00;100459.53;5050727;28;20025;-64
2022/08/13 05:13:45;;;;;;;10.77;10.27;;;;;;;20.75;100.00;100452.00;5053449;28;20365;-65
2022/08/13 05:16:17;;;;;;;10.98;10.48;;;;;;;20.87;100.00;100453.59;5053072;28;20124;-65
2022/08/13 05:18:50;;;;;;;10.60;10.10;;;;;;;20.87;100.00;100458.16;5052198;28;20044;-65
2022/08/13 05:21:16;;;;;;;12.03;11.43;;;;;;;21.02;100.00;100457.59;5050937;28;20028;-67
2022/08/13 05:23:42;;;;;;;11.20;10.70;;;;;;;20.80;100.00;100452.91;5053300;28;20029;-67
2022/08/13 05:26:10;;;;;;;11.52;10.93;;;;;;;20.82;100.00;100449.97;5052837;28;20032;-70
2022/08/13 05:28:36;;;;;;;10.75;10.25;;;;;;;20.93;100.00;100451.75;5049354;28;20032;-66
2022/08/13 05:31:02;;;;;;;10.80;10.30;;;;;;;21.01;100.00;100458.66;5051942;28;20029;-68
2022/08/13 05:33:30;;;;;;;13.05;12.43;;;;;;;21.01;100.00;100458.66;5052966;28;20118;-67
2022/08/13 05:36:01;;;;;;;11.35;10.85;;;;;;;20.82;100.00;100450.78;5068255;28;20784;-68
2022/08/13 05:38:28;;;;;;;11.73;11.13;;;;;;;20.94;100.00;100450.72;5052370;28;20025;-69
2022/08/13 05:40:56;;;;;;;11.73;11.13;;;;;;;20.89;100.00;100453.34;5050254;28;20029;-67
2022/08/13 05:43:27;;;;;;;11.27;10.77;;;;;;;20.95;100.00;100455.88;5052249;28;20072;-67
2022/08/13 05:45:57;;;;;;;11.55;11.05;;;;;;;21.00;100.00;100448.91;5052519;28;20052;-68
2022/08/13 05:48:56;;;;;;;11.90;11.30;;;;;;;20.97;100.00;100437.56;5052687;28;20089;-68
2022/08/13 05:51:33;;;;;;;11.75;11.15;;;;;;;21.08;100.00;100448.50;5052067;28;20055;-69
2022/08/13 05:54:01;;;;;;;11.73;11.15;;;;;;;21.15;100.00;100459.94;5050812;28;20020;-68
2022/08/13 05:56:37;;;;;;;11.80;11.20;;;;;;;21.07;100.00;100463.03;5050564;28;20027;-68
2022/08/13 06:03:22;;;;;;;12.10;11.50;;;;;;;21.14;100.00;100459.13;5044450;28;20035;-67
2022/08/13 06:04:40;;;;;;;11.88;11.27;;;;;;;21.37;100.00;100460.03;5050882;28;20028;-68
2022/08/13 06:07:09;;;;;;;11.80;11.20;;;;;;;21.50;100.00;100459.69;5048536;28;20117;-68
2022/08/13 06:09:35;;;;;;;11.75;11.15;;;;;;;21.55;100.00;100454.38;5039613;28;20543;-68
2022/08/13 06:12:01;;;;;;;11.55;11.00;;;;;;;21.63;100.00;100455.81;5051572;28;20028;-69
2022/08/13 06:14:26;;;;;;;11.70;11.10;;;;;;;21.65;100.00;100446.41;5052092;28;20079;-67
2022/08/13 06:16:52;;;;;;;11.18;10.68;;;;;;;21.57;100.00;100446.84;5052043;28;20033;-67
2022/08/13 06:19:24;;;;;;;11.45;10.93;;;;;;;21.65;100.00;100446.41;5052014;28;20151;-68
2022/08/13 06:21:51;;;;;;;11.40;10.85;;;;;;;21.54;100.00;100441.13;5049578;28;20017;-68
2022/08/13 06:24:17;;;;;;;11.48;10.88;;;;;;;21.80;100.00;100445.78;5050044;28;20029;-68
2022/08/13 06:26:42;;;;;;;11.30;10.80;;;;;;;21.87;100.00;100442.91;5039709;28;20036;-69
2022/08/13 06:29:09;;;;;;;11.20;10.70;;;;;;;21.77;100.00;100438.19;5048838;28;20025;-68
2022/08/13 06:31:38;;;;;;;12.18;11.57;;;;;;;21.90;100.00;100448.63;5051304;28;20021;-69
2022/08/13 06:34:08;;;;;;;11.30;10.80;;;;;;;21.75;100.00;100448.44;5052918;28;20029;-67
2022/08/13 06:36:36;;;;;;;11.45;10.95;;;;;;;22.04;100.00;100441.78;5058484;28;20109;-67
2022/08/13 06:39:04;;;;;;;10.90;10.40;;;;;;;22.40;100.00;100444.91;5048233;28;20020;-67
2022/08/13 06:41:31;;;;;;;11.20;10.70;;;;;;;22.63;100.00;100448.38;5050437;28;20021;-67
2022/08/13 06:43:57;;;;;;;12.43;11.80;;;;;;;22.76;100.00;100451.44;5051017;28;20079;-67
2022/08/13 06:46:28;;;;;;;12.10;11.50;;;;;;;22.84;100.00;100450.16;5050889;28;20496;-66
2022/08/13 06:48:58;;;;;;;11.23;10.73;;;;;;;22.68;100.00;100448.41;5051409;28;20024;-67
2022/08/13 06:51:25;;;;;;;11.32;10.82;;;;;;;22.57;100.00;100442.09;5051087;28;20053;-68
2022/08/13 06:53:50;;;;;;;11.40;10.80;;;;;;;22.69;100.00;100450.03;5050259;28;20033;-67
2022/08/13 06:56:21;;;;;;;10.98;10.48;;;;;;;22.63;100.00;100443.78;5051563;28;20063;-67
2022/08/13 06:58:50;;;;;;;11.00;10.50;;;;;;;22.87;100.00;100438.88;5051328;28;20020;-68
2022/08/13 07:01:18;;;;;;;10.98;10.48;;;;;;;22.88;100.00;100441.31;5050221;28;20032;-66
2022/08/13 07:03:44;;;;;;;11.65;11.05;;;;;;;23.03;100.00;100443.31;5051008;28;20036;-66
2022/08/13 07:06:20;;;;;;;11.40;10.88;;;;;;;23.19;100.00;100440.72;5049933;28;20029;-67
2022/08/13 07:08:46;;;;;;;10.82;10.32;;;;;;;23.34;100.00;100448.94;5050976;28;20074;-66
2022/08/13 07:11:22;;;;;;;11.50;10.95;;;;;;;23.23;100.00;100442.66;5050966;28;20049;-67
2022/08/13 07:13:51;;;;;;;11.80;11.20;;;;;;;23.07;100.00;100443.63;5051008;28;20435;-67
2022/08/13 07:16:19;;;;;;;11.90;11.30;;;;;;;23.23;100.00;100442.66;5048105;28;20112;-67
2022/08/13 07:18:46;;;;;;;11.10;10.60;;;;;;;23.28;100.00;100439.16;5050393;28;20175;-66
2022/08/13 07:21:15;;;;;;;11.60;11.02;;;;;;;23.33;100.00;100436.50;5050565;28;20035;-67
2022/08/13 07:23:43;;;;;;;11.10;10.60;;;;;;;23.50;100.00;100430.88;5050836;28;20041;-66
2022/08/13 07:26:12;;;;;;;11.60;11.00;;;;;;;23.20;100.00;100432.34;5049217;28;20021;-69
2022/08/13 07:28:40;;;;;;;10.90;10.40;;;;;;;23.17;100.00;100433.69;5047225;28;20425;-67
2022/08/13 07:31:08;;;;;;;11.38;10.88;;;;;;;23.25;100.00;100431.56;5050867;28;20402;-65
2022/08/13 07:33:36;;;;;;;11.57;10.98;;;;;;;23.40;100.00;100431.66;5047816;28;20033;-68
2022/08/13 07:36:10;;;;;;;10.68;10.18;;;;;;;23.49;100.00;100434.69;5039144;28;20773;-66
2022/08/13 07:38:36;;;;;;;11.85;11.25;;;;;;;23.49;100.00;100431.97;5047385;28;20020;-67
2022/08/13 07:41:03;;;;;;;10.85;10.35;;;;;;;23.48;100.00;100438.47;5048879;28;20040;-66
2022/08/13 07:43:32;;;;;;;10.88;10.38;;;;;;;23.27;100.00;100432.13;5049927;28;20048;-65
2022/08/13 07:46:10;;;;;;;10.82;10.32;;;;;;;23.65;100.00;100431.00;5048877;28;20041;-65
2022/08/13 07:48:37;;;;;;;11.55;10.95;;;;;;;23.71;100.00;100427.25;5050158;28;20036;-66
2022/08/13 07:51:05;;;;;;;11.18;10.68;;;;;;;23.67;100.00;100418.84;5048380;28;20079;-65
2022/08/13 07:53:34;;;;;;;11.20;10.70;;;;;;;23.52;100.00;100423.34;5048543;28;20032;-65
2022/08/13 07:56:00;;;;;;;11.50;10.90;;;;;;;23.78;100.00;100416.16;5046412;28;20020;-65
2022/08/13 07:58:28;;;;;;;11.20;10.70;;;;;;;23.84;100.00;100415.13;5049203;28;20079;-65
2022/08/13 08:00:57;;;;;;;11.75;11.15;;;;;;;24.08;100.00;100410.84;5047616;28;20472;-66
2022/08/13 08:03:28;;;;;;;10.70;10.20;;;;;;;24.21;100.00;100409.53;5049923;28;20504;-66
2022/08/13 08:05:55;;;;;;;10.95;10.45;;;;;;;24.23;100.00;100413.59;5048835;28;20112;-64
2022/08/13 08:08:22;;;;;;;11.40;10.88;;;;;;;24.64;100.00;100407.47;5047836;28;20082;-64
2022/08/13 08:10:47;;;;;;;12.10;11.50;;;;;;;24.76;100.00;100408.81;5050371;28;20014;-65
2022/08/13 08:13:13;;;;;;;10.77;10.27;;;;;;;26.16;100.00;100404.38;5048865;28;20029;-65
2022/08/13 08:15:45;;;;;;;11.10;10.60;;;;;;;25.67;100.00;100401.59;5048892;28;20095;-65
2022/08/13 08:18:11;;;;;;;11.38;10.88;;;;;;;26.19;100.00;100403.00;5049125;28;20028;-65
2022/08/13 08:20:37;;;;;;;11.05;10.55;;;;;;;25.69;100.00;100399.41;5047032;28;20473;-66
2022/08/13 08:23:03;;;;;;;11.85;11.25;;;;;;;26.33;100.00;100398.56;5049491;28;20044;-66
2022/08/13 08:25:28;;;;;;;10.85;10.35;;;;;;;26.85;100.00;100390.81;5051786;28;20028;-66
2022/08/13 08:27:54;;;;;;;10.88;10.38;;;;;;;26.58;100.00;100383.16;5053546;28;20029;-66
2022/08/13 08:30:20;;;;;;;10.40;9.90;;;;;;;26.85;100.00;100375.31;5051639;28;20446;-64
2022/08/13 08:32:52;;;;;;;11.32;10.82;;;;;;;26.09;100.00;100384.84;5052593;28;20028;-64
2022/08/13 08:35:19;;;;;;;11.52;11.02;;;;;;;26.83;100.00;100385.69;5050036;28;20044;-65
2022/08/13 08:43:14;;;;;;;10.18;9.75;;;;;;;26.41;100.00;100375.41;5052309;28;20097;-67
2022/08/13 08:45:40;;;;;;;10.68;10.18;;;;;;;26.09;100.00;100373.97;5052441;28;20084;-68
2022/08/13 08:48:06;;;;;;;11.45;10.95;;;;;;;26.66;100.00;100367.06;5051646;28;20028;-67
2022/08/13 08:50:33;;;;;;;10.60;10.10;;;;;;;26.25;100.00;100365.72;5052891;28;20029;-67
2022/08/13 08:55:44;;;;;;;11.10;10.60;;;;;;;25.81;100.00;100370.03;5045202;28;20106;-66
2022/08/13 08:58:11;;;;;;;10.77;10.27;;;;;;;25.56;100.00;100373.69;5052259;28;20033;-65
2022/08/13 09:00:39;;;;;;;13.82;13.13;;;;;;;25.54;100.00;100375.84;5052075;28;20052;-67
2022/08/13 09:03:06;;;;;;;13.82;13.10;;;;;;;25.34;100.00;100367.78;5051874;28;20108;-66
2022/08/13 09:05:33;;;;;;;15.27;14.38;;;;;;;25.24;100.00;100368.59;5050460;28;20036;-69
2022/08/13 09:08:02;;;;;;;14.00;13.20;;;;;;;25.15;100.00;100369.44;5049073;28;20029;-66
2022/08/13 09:10:33;;;;;;;12.90;12.30;;;;;;;24.94;100.00;100364.03;5051578;28;20078;-67
2022/08/13 09:13:03;;;;;;;13.48;12.77;;;;;;;24.89;100.00;100364.03;5049638;28;20025;-67
2022/08/13 09:15:33;;;;;;;13.27;12.57;;;;;;;25.06;100.00;100366.50;5047683;28;20039;-68
2022/08/13 09:17:59;;;;;;;12.77;12.18;;;;;;;25.29;100.00;100367.78;5051412;28;20535;-68
2022/08/13 09:20:26;;;;;;;12.93;12.25;;;;;;;25.28;100.00;100366.16;5051543;28;20105;-67
2022/08/13 09:23:03;;;;;;;13.38;12.68;;;;;;;25.06;100.00;100364.59;5050786;28;20036;-67
2022/08/13 09:25:30;;;;;;;12.65;12.05;;;;;;;24.80;100.00;100360.25;5050775;28;20397;-68
2022/08/13 09:27:57;;;;;;;12.48;11.88;;;;;;;24.91;100.00;100363.78;5052717;28;20396;-68
2022/08/13 09:30:23;;;;;;;12.93;12.27;;;;;;;25.27;100.00;100369.97;5051673;28;20512;-68
2022/08/13 09:32:53;;;;;;;12.40;11.80;;;;;;;25.20;100.00;100366.72;5051470;28;20033;-68
2022/08/13 09:35:18;;;;;;;13.18;12.48;;;;;;;25.09;100.00;100360.50;5049905;28;20017;-69
2022/08/13 09:37:45;;;;;;;12.40;11.80;;;;;;;25.04;100.00;100360.50;5051237;28;20024;-69
2022/08/13 09:40:16;;;;;;;13.10;12.43;;;;;;;24.91;100.00;100353.72;5053106;28;20029;-68
2022/08/13 09:42:57;;;;;;;12.90;12.20;;;;;;;25.37;100.00;100356.34;5051029;28;20434;-66
2022/08/13 09:45:27;;;;;;;12.63;12.00;;;;;;;25.41;100.00;100343.03;5050726;28;20082;-69
2022/08/13 09:47:56;;;;;;;12.73;12.05;;;;;;;25.64;100.00;100347.84;5046963;28;20113;-67
2022/08/13 09:50:24;;;;;;;14.05;13.25;;;;;;;26.06;100.00;100341.91;5047815;28;20053;-68
2022/08/13 09:52:52;;;;;;;12.98;12.27;;;;;;;26.15;100.00;100347.56;5050568;28;20040;-69
2022/08/13 09:55:23;;;;;;;12.70;12.10;;;;;;;26.11;100.00;100341.88;5051015;28;20047;-70
2022/08/13 09:57:52;;;;;;;13.15;12.45;;;;;;;26.51;100.00;100339.94;5051722;28;20108;-69
2022/08/13 10:00:24;;;;;;;12.13;11.52;;;;;;;26.85;100.00;100344.56;5051970;28;20051;-69
2022/08/13 10:02:54;;;;;;;13.30;12.60;;;;;;;26.96;100.00;100337.94;5046689;28;20021;-68
2022/08/13 10:05:20;;;;;;;13.00;12.30;;;;;;;26.65;100.00;100342.84;5050289;28;20029;-68
2022/08/13 10:07:46;;;;;;;12.80;12.20;;;;;;;27.04;100.00;100334.59;5051585;28;20024;-70
2022/08/13 10:10:14;;;;;;;13.63;12.93;;;;;;;27.17;100.00;100323.00;5049128;28;20040;-70
2022/08/13 10:12:40;;;;;;;12.30;11.70;;;;;;;27.33;100.00;100325.56;5049518;28;20025;-68
2022/08/13 10:15:08;;;;;;;12.35;11.75;;;;;;;27.12;100.00;100325.78;5051570;28;20035;-68
2022/08/13 10:17:57;;;;;;;12.68;12.00;;;;;;;27.48;100.00;100328.09;5050991;28;20100;-67
2022/08/13 10:20:30;;;;;;;13.20;12.50;;;;;;;27.58;100.00;100319.78;5046673;28;20024;-69
2022/08/13 10:22:57;;;;;;;12.68;12.07;;;;;;;27.83;100.00;100317.81;5050856;28;20025;-69
2022/08/13 10:25:24;;;;;;;12.27;11.68;;;;;;;27.94;100.00;100317.41;5051687;28;20036;-67
2022/08/13 10:27:51;;;;;;;11.98;11.38;;;;;;;27.79;100.00;100312.97;5049793;28;20021;-70
2022/08/13 10:30:18;;;;;;;11.93;11.32;;;;;;;27.76;100.00;100308.13;5049874;28;20037;-69
2022/08/13 10:32:46;;;;;;;11.45;10.95;;;;;;;27.74;100.00;100309.50;5051555;28;20036;-70
2022/08/13 10:35:12;;;;;;;11.85;11.25;;;;;;;27.40;100.00;100306.94;5051292;28;20397;-69
2022/08/13 10:37:45;;;;;;;12.52;11.93;;;;;;;27.93;100.00;100307.59;5050857;28;20021;-71
2022/08/13 10:40:13;;;;;;;12.57;11.97;;;;;;;27.77;100.00;100301.56;5048650;28;20021;-69
2022/08/13 10:42:39;;;;;;;11.20;10.70;;;;;;;27.91;100.00;100301.63;5051259;28;20044;-68
2022/08/13 10:45:05;;;;;;;12.10;11.50;;;;;;;28.24;100.00;100305.19;5051325;28;20025;-69
2022/08/13 10:47:31;;;;;;;11.95;11.35;;;;;;;28.09;100.00;100306.25;5050387;28;20430;-68
2022/08/13 10:49:57;;;;;;;11.77;11.18;;;;;;;28.45;100.00;100308.44;5048511;28;20028;-70
2022/08/13 10:52:24;;;;;;;11.73;11.13;;;;;;;28.72;100.00;100302.22;5049550;28;20036;-69
2022/08/13 10:54:49;;;;;;;11.82;11.23;;;;;;;28.80;100.00;100309.72;5048013;28;20036;-69
2022/08/13 10:57:16;;;;;;;11.43;10.93;;;;;;;28.62;100.00;100308.66;5051026;28;20108;-69
2022/08/13 10:59:43;;;;;;;11.55;11.05;;;;;;;28.68;100.00;100311.31;5046832;28;20025;-70
2022/08/13 11:02:10;;;;;;;12.38;11.77;;;;;;;28.34;100.00;100302.31;5050683;28;20059;-68
2022/08/13 11:04:36;;;;;;;12.43;11.82;;;;;;;28.06;100.00;100293.22;5051063;28;20040;-70
2022/08/13 11:07:10;;;;;;;11.93;11.32;;;;;;;28.12;100.00;100296.66;5049321;28;20112;-70
2022/08/13 11:09:37;;;;;;;11.52;11.02;;;;;;;28.11;100.00;100292.31;5048795;28;20040;-69
2022/08/13 11:12:03;;;;;;;11.80;11.20;;;;;;;28.03;100.00;100290.25;5066385;28;20114;-69
2022/08/13 11:14:30;;;;;;;11.57;11.07;;;;;;;28.82;100.00;100290.31;5050814;28;20075;-70
2022/08/13 11:19:25;;;;;;;11.25;10.75;;;;;;;28.90;100.00;100284.97;5049536;28;20396;-69
2022/08/13 11:21:51;;;;;;;11.52;11.02;;;;;;;28.79;100.00;100293.63;5050808;28;20028;-69
2022/08/13 11:24:18;;;;;;;11.13;10.63;;;;;;;29.15;100.00;100286.38;5050596;28;20550;-70
2022/08/13 11:26:45;;;;;;;11.20;10.70;;;;;;;29.19;100.00;100278.41;5049894;28;20029;-70
2022/08/13 11:29:11;;;;;;;11.23;10.73;;;;;;;29.19;100.00;100278.41;5047949;28;20036;-70